Time;durP1;ratioP1;P1;durP2;ratioP2;P2;SDS_P1;SDS_P2;PMS_P1;PMS_P2;Temp;Humidity;BMP_temperature;BMP_pressure;BME280_temperature;BME280_humidity;BME280_pressure;Samples;Min_cycle;Max_cycle;Signal;HPM_P1;HPM_P2
2022/10/18 00:01:29;;;;;;;;;11.67;9.67;;;;;20.89;98.63;-15388.03;5005325;27;45734;-76
2022/10/18 00:03:55;;;;;;;;;13.67;12.67;;;;;20.84;98.12;-15387.03;4994772;27;45433;-75
2022/10/18 00:06:20;;;;;;;;;12.00;12.00;;;;;20.89;98.60;-15388.03;4993657;27;46039;-76
2022/10/18 00:08:45;;;;;;;;;17.33;13.33;;;;;20.84;98.56;-15050.41;4997413;27;45512;-76
2022/10/18 00:11:11;;;;;;;;;13.33;12.33;;;;;20.85;99.07;-15387.34;4989772;28;45493;-76
2022/10/18 00:13:37;;;;;;;;;12.67;11.00;;;;;20.80;98.70;-15049.66;5005208;27;45536;-78
2022/10/18 00:16:08;;;;;;;;;12.33;11.33;;;;;20.89;99.07;-15387.91;4994015;28;45995;-76
2022/10/18 00:18:34;;;;;;;;;16.00;12.33;;;;;20.90;98.37;-15388.22;4994114;28;45413;-76
2022/10/18 00:21:08;;;;;;;;;14.33;13.67;;;;;20.90;99.10;-15388.22;5005180;27;45518;-76
2022/10/18 00:23:34;;;;;;;;;13.00;13.00;;;;;20.78;98.87;-16059.16;4985839;28;45357;-76
2022/10/18 00:26:00;;;;;;;;;14.33;12.67;;;;;20.83;99.40;-15386.84;4996885;27;46415;-75
2022/10/18 00:28:25;;;;;;;;;14.00;11.00;;;;;20.64;99.33;-16056.47;4993115;27;45386;-75
2022/10/18 00:30:50;;;;;;;;;12.00;12.00;;;;;20.70;99.71;-16057.50;4996441;28;45502;-76
2022/10/18 00:33:16;;;;;;;;;11.00;11.00;;;;;20.68;99.92;-16057.19;4993910;27;45302;-75
2022/10/18 00:35:41;;;;;;;;;13.33;11.67;;;;;20.68;99.94;-16057.09;4993297;28;45311;-75
2022/10/18 00:38:06;;;;;;;;;13.33;12.33;;;;;20.45;100.00;-16052.63;4994753;27;45319;-76
2022/10/18 00:40:32;;;;;;;;;14.00;14.00;;;;;20.64;99.78;-16056.34;5001633;27;45318;-76
2022/10/18 00:42:57;;;;;;;;;12.67;12.67;;;;;20.61;99.83;-16392.25;5000530;27;46482;-76
2022/10/18 00:45:23;;;;;;;;;14.67;12.33;;;;;20.63;100.00;-16392.78;4996402;27;47321;-76
2022/10/18 00:47:58;;;;;;;;;13.33;9.67;;;;;20.64;99.76;-16392.97;4996551;27;45360;-75
2022/10/18 00:50:27;;;;;;;;;12.33;11.33;;;;;20.65;100.00;-16393.19;5001620;27;45543;-75
2022/10/18 00:52:57;;;;;;;;;12.33;10.33;;;;;20.64;100.00;-16392.97;4996765;27;45624;-76
2022/10/18 00:55:24;;;;;;;;;11.67;11.33;;;;;20.63;100.00;-16392.66;4995113;27;46071;-76
2022/10/18 00:57:50;;;;;;;;;12.33;11.33;;;;;20.54;100.00;-16390.84;4996301;27;45420;-76
2022/10/18 01:00:16;;;;;;;;;14.00;12.67;;;;;20.62;100.00;-16392.44;5004063;27;45377;-73
2022/10/18 01:02:45;;;;;;;;;13.67;13.00;;;;;20.43;100.00;-16388.53;5000387;27;45902;-73
2022/10/18 01:05:13;;;;;;;;;11.00;11.00;;;;;20.63;100.00;-16392.66;4996213;27;47193;-73
2022/10/18 01:08:02;;;;;;;;;12.00;12.00;;;;;20.74;100.00;-15721.72;4996022;27;45422;-73
2022/10/18 01:10:41;;;;;;;;;14.67;13.33;;;;;20.49;100.00;-16389.81;5002060;27;45432;-73
2022/10/18 01:13:48;;;;;;;;;11.00;9.67;;;;;20.80;99.86;-15722.91;4998833;27;45414;-72
2022/10/18 01:16:16;;;;;;;;;8.33;8.33;;;;;20.88;99.11;-16061.22;4999432;27;46322;-73
2022/10/18 01:18:56;;;;;;;;;12.67;10.67;;;;;20.88;98.93;-16061.22;4978512;28;45337;-73
2022/10/18 01:21:24;;;;;;;;;13.00;13.00;;;;;20.91;99.32;-16061.72;4994920;27;45731;-73
2022/10/18 01:24:11;;;;;;;;;12.00;12.00;;;;;20.91;98.83;-16061.72;5008645;27;45359;-73
2022/10/18 01:27:13;;;;;;;;;14.00;10.67;;;;;20.91;98.85;-16061.81;5004366;27;45709;-73
2022/10/18 01:30:04;;;;;;;;;12.33;12.33;;;;;20.91;98.67;-15725.13;4999987;27;45445;-72
2022/10/18 01:32:40;;;;;;;;;12.67;12.67;;;;;20.73;98.72;-15721.63;5002479;27;45511;-72
2022/10/18 01:35:12;;;;;;;;;11.67;11.00;;;;;20.90;99.24;-15724.94;5007623;27;45440;-72
2022/10/18 01:37:43;;;;;;;;;12.67;11.33;;;;;20.89;98.55;-15724.72;5005155;27;46099;-72
2022/10/18 01:40:13;;;;;;;;;15.00;12.67;;;;;20.89;98.54;-15724.63;5010880;27;45548;-72
2022/10/18 01:42:39;;;;;;;;;14.33;12.67;;;;;20.88;98.75;-15724.53;4961785;28;45437;-72
2022/10/18 01:45:07;;;;;;;;;13.33;11.33;;;;;20.88;98.61;-15724.53;5002294;27;45519;-72
2022/10/18 01:47:34;;;;;;;;;12.00;12.00;;;;;20.86;98.56;-15724.22;4994742;27;46548;-72
2022/10/18 01:50:03;;;;;;;;;12.67;11.67;;;;;20.86;98.14;-15724.13;4979873;28;46296;-72
2022/10/18 01:52:28;;;;;;;;;11.67;10.67;;;;;20.85;98.18;-15723.94;4989196;28;46369;-72
2022/10/18 01:54:55;;;;;;;;;12.33;12.33;;;;;20.82;98.07;-15723.31;5004545;27;45372;-72
2022/10/18 01:57:35;;;;;;;;;14.67;12.33;;;;;20.80;98.16;-15723.03;5004581;27;46222;-72
2022/10/18 02:00:13;;;;;;;;;14.67;13.67;;;;;20.75;97.80;-15722.03;4979326;28;45510;-78
2022/10/18 02:02:38;;;;;;;;;15.00;13.33;;;;;20.76;98.04;-15722.22;4973751;28;45730;-78
2022/10/18 02:05:10;;;;;;;;;14.00;12.33;;;;;20.74;97.35;-16058.31;4989770;27;45568;-78
2022/10/18 02:07:50;;;;;;;;;13.00;12.33;;;;;20.71;97.68;-16057.69;4994131;27;45509;-78
2022/10/18 02:10:49;;;;;;;;;13.00;13.00;;;;;20.67;96.84;-16056.97;4997655;28;46169;-78
2022/10/18 02:13:19;;;;;;;;;16.33;13.33;;;;;20.64;97.42;-15719.81;4993918;27;45464;-78
2022/10/18 02:15:49;;;;;;;;;12.33;12.33;;;;;20.46;97.39;-16052.75;5001029;27;46393;-78
2022/10/18 02:18:21;;;;;;;;;12.67;11.67;;;;;20.26;97.13;-15712.25;4995597;27;45386;-77
2022/10/18 02:20:48;;;;;;;;;13.33;13.00;;;;;20.40;96.75;-16051.59;5001493;27;45729;-78
2022/10/18 02:23:18;;;;;;;;;9.33;7.67;;;;;20.34;96.88;-16034.50;5002979;27;45368;-77
2022/10/18 02:25:44;;;;;;;;;15.33;15.00;;;;;20.48;96.83;-16053.16;4970179;28;45446;-77
2022/10/18 02:28:09;;;;;;;;;15.33;14.00;;;;;20.40;96.83;-16051.59;4994492;27;45933;-78
2022/10/18 02:30:47;;;;;;;;;12.67;12.67;;;;;20.30;97.07;-16049.53;4986907;28;45460;-77
2022/10/18 02:33:28;;;;;;;;;18.33;15.67;;;;;20.26;96.86;-16048.59;4995034;27;45429;-77
2022/10/18 02:36:01;;;;;;;;;12.67;12.67;;;;;20.09;96.75;-16045.19;4995580;28;45419;-77
2022/10/18 02:38:30;;;;;;;;;14.00;13.00;;;;;20.14;97.02;-16046.22;4993631;28;47236;-77
2022/10/18 02:40:56;;;;;;;;;15.33;15.33;;;;;20.31;96.49;-16049.75;5009342;27;45366;-77
2022/10/18 02:43:23;;;;;;;;;18.33;16.00;;;;;20.30;96.91;-16049.44;4994973;27;45408;-77
2022/10/18 02:45:49;;;;;;;;;15.33;14.33;;;;;20.28;97.00;-16049.13;4995378;27;45591;-77
2022/10/18 02:48:14;;;;;;;;;16.67;14.67;;;;;20.27;96.45;-16048.81;4994668;27;45441;-78
2022/10/18 02:50:39;;;;;;;;;16.00;14.67;;;;;20.08;96.72;-16045.09;5007465;27;45409;-77
2022/10/18 02:53:05;;;;;;;;;18.33;14.67;;;;;20.21;96.73;-16328.81;4995201;28;45989;-78
2022/10/18 02:55:30;;;;;;;;;19.00;15.00;;;;;20.09;96.81;-16045.31;4995373;27;45235;-78
2022/10/18 02:57:55;;;;;;;;;14.33;12.33;;;;;20.21;96.58;-16047.78;4993649;27;45577;-78
2022/10/18 03:00:21;;;;;;;;;12.33;12.00;;;;;20.14;96.77;-16046.22;4998895;28;45503;-77
2022/10/18 03:02:47;;;;;;;;;18.67;17.33;;;;;20.18;96.56;-16047.16;4994654;27;45366;-77
2022/10/18 03:05:13;;;;;;;;;12.67;12.67;;;;;20.21;96.50;-16047.78;4974300;28;45547;-79
2022/10/18 03:07:39;;;;;;;;;15.33;14.67;;;;;20.21;96.93;-16047.78;4992321;27;46242;-78
2022/10/18 03:10:05;;;;;;;;;16.33;13.67;;;;;20.19;97.35;-16047.25;4996057;27;45495;-78
2022/10/18 03:12:30;;;;;;;;;15.33;14.33;;;;;20.19;97.83;-15711.06;4993509;27;45360;-77
2022/10/18 03:14:55;;;;;;;;;18.00;14.67;;;;;20.07;97.66;-16044.88;4993903;27;45625;-78
2022/10/18 03:17:21;;;;;;;;;14.67;12.33;;;;;20.15;97.08;-16046.53;5000775;27;45934;-77
2022/10/18 03:19:46;;;;;;;;;15.00;14.67;;;;;20.20;96.83;-15989.66;4994976;27;45709;-77
2022/10/18 03:22:11;;;;;;;;;17.67;11.33;;;;;20.05;96.75;-16044.38;5000303;27;45862;-77
2022/10/18 03:24:37;;;;;;;;;14.67;12.67;;;;;20.16;96.49;-16046.66;4996225;27;46462;-77
2022/10/18 03:27:02;;;;;;;;;15.67;13.67;;;;;20.14;96.32;-16046.34;4993163;27;46041;-78
2022/10/18 03:29:28;;;;;;;;;15.67;14.00;;;;;20.13;96.09;-16046.13;4995260;27;45528;-78
2022/10/18 03:31:53;;;;;;;;;12.00;10.67;;;;;20.13;96.80;-15975.09;4974519;28;45369;-78
2022/10/18 03:34:18;;;;;;;;;12.67;12.67;;;;;20.13;96.71;-16014.50;4994998;27;45329;-78
2022/10/18 03:36:44;;;;;;;;;14.00;13.33;;;;;20.16;96.81;-15962.69;4993924;27;46301;-77
2022/10/18 03:39:11;;;;;;;;;14.67;14.67;;;;;20.16;96.76;-15710.34;4996467;28;45325;-79
2022/10/18 03:41:36;;;;;;;;;14.67;14.67;;;;;20.17;97.19;-15710.66;4994789;27;45417;-77
2022/10/18 03:44:01;;;;;;;;;13.67;12.67;;;;;20.18;96.89;-15710.75;5002513;27;45313;-78
2022/10/18 03:46:27;;;;;;;;;13.33;13.33;;;;;20.07;97.00;-15708.66;4998213;27;46204;-77
2022/10/18 03:48:52;;;;;;;;;17.00;14.33;;;;;20.20;97.30;-15711.16;4997145;27;45499;-78
2022/10/18 03:51:17;;;;;;;;;17.33;15.67;;;;;20.20;97.64;-15374.91;5009729;27;45420;-77
2022/10/18 03:53:43;;;;;;;;;17.67;14.67;;;;;20.22;97.26;-15375.31;4980551;27;45522;-77
2022/10/18 03:56:08;;;;;;;;;16.00;13.00;;;;;20.24;97.23;-15375.59;4996855;27;46173;-77
2022/10/18 03:58:34;;;;;;;;;14.67;14.67;;;;;20.26;97.31;-15375.88;4991963;27;45500;-77
2022/10/18 04:00:59;;;;;;;;;13.33;13.33;;;;;20.25;97.69;-15638.59;5001650;27;45484;-78
2022/10/18 04:03:24;;;;;;;;;14.67;13.67;;;;;20.27;97.62;-15376.19;5000026;27;45892;-77
2022/10/18 04:05:50;;;;;;;;;18.33;14.67;;;;;20.13;97.25;-15355.16;5002942;28;45469;-77
2022/10/18 04:08:16;;;;;;;;;14.67;13.33;;;;;20.28;97.40;-15376.38;4991383;28;45442;-77
2022/10/18 04:10:42;;;;;;;;;15.00;15.00;;;;;20.29;97.34;-15376.47;5006187;27;45441;-78
2022/10/18 04:13:08;;;;;;;;;14.00;13.00;;;;;20.23;96.71;-15572.50;4999772;27;45376;-78
2022/10/18 04:15:34;;;;;;;;;14.67;13.33;;;;;20.25;97.28;-15546.59;4994211;27;45465;-77
2022/10/18 04:18:00;;;;;;;;;13.67;12.33;;;;;20.23;96.83;-15711.88;5001888;27;45400;-78
2022/10/18 04:20:26;;;;;;;;;16.00;15.00;;;;;20.18;97.05;-15634.66;4983990;28;45582;-77
2022/10/18 04:22:54;;;;;;;;;12.33;12.33;;;;;20.17;96.60;-15710.56;4988322;27;45696;-78
2022/10/18 04:25:20;;;;;;;;;15.00;13.00;;;;;20.20;96.75;-15684.88;4995074;28;48158;-78
2022/10/18 04:27:46;;;;;;;;;16.33;15.00;;;;;20.17;96.32;-15710.66;4992199;27;45460;-77
2022/10/18 04:30:11;;;;;;;;;14.33;12.00;;;;;20.15;96.83;-15681.25;4975722;28;45476;-78
2022/10/18 04:32:37;;;;;;;;;13.67;13.67;;;;;20.12;96.39;-15680.75;4994630;28;45433;-78
2022/10/18 04:35:03;;;;;;;;;17.33;13.33;;;;;20.09;96.54;-15682.78;4998916;27;46386;-78
2022/10/18 04:37:28;;;;;;;;;18.33;14.67;;;;;20.04;96.42;-15658.13;5000825;27;45467;-78
2022/10/18 04:39:54;;;;;;;;;14.33;11.67;;;;;20.04;96.30;-15689.66;4962676;28;45571;-78
2022/10/18 04:42:20;;;;;;;;;18.00;14.33;;;;;19.96;95.82;-15590.84;4975587;28;45345;-78
2022/10/18 04:44:46;;;;;;;;;14.00;12.67;;;;;19.97;95.35;-15572.66;5004599;28;46176;-78
2022/10/18 04:47:11;;;;;;;;;14.00;13.67;;;;;19.99;95.25;-15460.22;5005425;27;46173;-77
2022/10/18 04:49:36;;;;;;;;;15.00;14.33;;;;;19.95;95.59;-15527.63;4973467;28;46094;-78
2022/10/18 04:52:02;;;;;;;;;13.67;13.67;;;;;19.93;95.47;-15338.09;4947815;28;46118;-77
2022/10/18 04:54:28;;;;;;;;;11.67;11.67;;;;;19.61;95.46;-15452.91;4997677;28;45380;-78
2022/10/18 04:56:53;;;;;;;;;13.33;13.33;;;;;19.87;95.36;-15434.22;4992906;27;45615;-78
2022/10/18 04:59:19;;;;;;;;;16.67;15.00;;;;;19.87;95.86;-15410.47;5000169;27;45860;-78
2022/10/18 05:01:44;;;;;;;;;17.67;13.67;;;;;19.84;95.68;-15323.31;4984945;27;45571;-78
2022/10/18 05:04:09;;;;;;;;;16.33;13.00;;;;;19.63;95.08;-15274.69;4989210;28;46957;-78
2022/10/18 05:06:35;;;;;;;;;14.33;12.67;;;;;19.77;95.29;-15311.53;4990586;28;46046;-78
2022/10/18 05:09:00;;;;;;;;;15.67;15.67;;;;;20.03;94.49;-13495.47;4991723;27;45401;-77
2022/10/18 05:11:26;;;;;;;;;19.00;15.33;;;;;19.82;94.60;-14894.81;5016120;27;46079;-77
2022/10/18 05:13:51;;;;;;;;;15.00;13.67;;;;;19.77;95.13;-14812.47;4992602;27;46692;-77
2022/10/18 05:16:17;;;;;;;;;12.67;12.67;;;;;19.72;94.99;-14735.38;4989747;27;45614;-77
2022/10/18 05:18:42;;;;;;;;;14.00;11.67;;;;;19.74;94.84;-14951.09;4982914;28;45575;-79
2022/10/18 05:21:08;;;;;;;;;20.33;17.33;;;;;19.71;94.73;-14811.44;4990807;27;45539;-78
2022/10/18 05:23:33;;;;;;;;;15.67;15.67;;;;;19.71;94.53;-14724.69;4980319;28;47213;-82
2022/10/18 05:26:04;;;;;;;;;14.33;13.67;;;;;19.69;94.94;-14648.16;4997502;27;45556;-84
2022/10/18 05:28:29;;;;;;;;;17.00;14.33;;;;;19.58;95.16;-14635.81;4992272;27;45578;-81
2022/10/18 05:30:55;;;;;;;;;14.33;13.33;;;;;19.66;95.77;-14613.53;5001478;27;45523;-76
2022/10/18 05:33:20;;;;;;;;;14.67;14.33;;;;;19.70;95.69;-14648.34;5000937;27;45843;-74
2022/10/18 05:35:45;;;;;;;;;13.00;12.33;;;;;19.73;95.31;-14654.13;5014502;27;46159;-75
2022/10/18 05:38:11;;;;;;;;;15.00;10.67;;;;;19.56;95.90;-14640.59;5005960;27;45552;-81
2022/10/18 05:40:39;;;;;;;;;16.67;15.00;;;;;19.56;96.16;-14501.44;5002997;27;45648;-83
2022/10/18 05:43:04;;;;;;;;;17.67;17.33;;;;;19.72;96.05;-14627.69;5010017;27;46727;-80
2022/10/18 05:45:29;;;;;;;;;18.33;14.33;;;;;19.79;96.49;-14665.75;4999177;28;45427;-85
2022/10/18 05:47:55;;;;;;;;;15.33;12.67;;;;;19.82;96.15;-14784.50;5000434;28;45404;-84
2022/10/18 05:50:20;;;;;;;;;15.33;12.67;;;;;19.83;96.71;-14879.25;4990707;27;45389;-84
2022/10/18 05:52:46;;;;;;;;;13.67;13.00;;;;;19.85;97.03;-14882.25;4990203;27;47094;-84
2022/10/18 05:55:11;;;;;;;;;14.00;11.67;;;;;19.86;97.01;-15068.94;4982479;28;46137;-84
2022/10/18 05:57:36;;;;;;;;;15.00;15.00;;;;;19.88;96.49;-14977.28;4993318;27;45436;-84
2022/10/18 06:00:03;;;;;;;;;14.00;14.00;;;;;19.72;96.55;-15097.88;4982727;28;45448;-83
2022/10/18 06:02:28;;;;;;;;;13.33;12.33;;;;;19.90;97.13;-15088.00;4976075;28;45395;-83
2022/10/18 06:04:53;;;;;;;;;14.33;12.67;;;;;19.75;nan;-15179.75;4987631;27;45712;-83
2022/10/18 06:07:19;;;;;;;;;16.33;14.00;;;;;19.84;97.14;-15202.50;4958497;28;45520;-84
2022/10/18 06:09:44;;;;;;;;;11.67;10.33;;;;;19.95;96.66;-15312.22;4998918;27;45394;-83
2022/10/18 06:12:09;;;;;;;;;10.67;10.67;;;;;19.94;96.56;-15288.38;4983251;28;47215;-84
2022/10/18 06:14:36;;;;;;;;;14.00;10.33;;;;;19.88;96.44;-15190.13;4984067;27;45338;-85
2022/10/18 06:17:01;;;;;;;;;14.00;12.67;;;;;19.95;96.87;-15254.53;4981616;28;45562;-85
2022/10/18 06:19:27;;;;;;;;;14.33;12.00;;;;;19.81;97.31;-15362.13;4994934;28;45552;-85
2022/10/18 06:21:52;;;;;;;;;18.33;14.67;;;;;19.97;97.13;-15226.03;4994530;28;45756;-85
2022/10/18 06:24:17;;;;;;;;;10.67;10.00;;;;;19.95;97.07;-15328.00;4979163;27;47386;-85
2022/10/18 06:26:43;;;;;;;;;11.67;10.67;;;;;19.95;97.38;-15370.03;4982361;28;45701;-85
2022/10/18 06:29:09;;;;;;;;;12.33;11.00;;;;;19.73;98.50;-16710.00;4967726;28;45483;-85
2022/10/18 06:31:34;;;;;;;;;10.67;10.67;;;;;19.71;97.98;-16709.56;4998561;27;47026;-85
2022/10/18 06:34:00;;;;;;;;;11.67;11.67;;;;;19.71;98.71;-16709.66;4995939;28;49377;-85
2022/10/18 06:36:26;;;;;;;;;12.67;12.67;;;;;19.71;98.39;-17045.53;5002964;27;45274;-84
2022/10/18 06:38:52;;;;;;;;;11.67;11.67;;;;;19.51;98.93;-16705.31;5003283;27;45507;-80
2022/10/18 06:41:21;;;;;;;;;10.67;8.00;;;;;19.52;99.26;-17041.41;4998830;27;45602;-82
2022/10/18 06:43:50;;;;;;;;;13.33;10.00;;;;;19.85;98.28;-16040.34;5000690;27;45357;-84
2022/10/18 06:46:16;;;;;;;;;10.67;10.33;;;;;19.94;97.94;-15706.03;5011318;27;45412;-84
2022/10/18 06:48:41;;;;;;;;;12.33;10.67;;;;;19.87;97.56;-15704.72;5022675;27;45604;-86
2022/10/18 06:51:07;;;;;;;;;12.00;12.00;;;;;20.08;97.63;-15708.84;5000872;27;46454;-85
2022/10/18 06:53:35;;;;;;;;;13.67;12.33;;;;;19.99;97.38;-15552.06;4988375;27;45923;-86
2022/10/18 06:56:03;;;;;;;;;12.67;11.33;;;;;20.12;97.55;-15373.25;4980847;28;45404;-86
2022/10/18 06:58:29;;;;;;;;;11.33;11.00;;;;;20.11;96.88;-15331.13;4986132;28;46399;-83
2022/10/18 07:00:55;;;;;;;;;10.33;9.67;;;;;20.05;96.92;-15219.50;4989938;27;45809;-84
2022/10/18 07:03:21;;;;;;;;;11.33;10.00;;;;;20.16;97.46;-15245.38;4984765;27;45399;-84
2022/10/18 07:05:50;;;;;;;;;15.67;13.00;;;;;20.16;97.06;-15014.13;4963266;28;45441;-83
2022/10/18 07:08:16;;;;;;;;;12.67;12.67;;;;;20.16;97.06;-14940.53;4982663;27;45526;-81
2022/10/18 07:10:42;;;;;;;;;12.33;10.67;;;;;19.94;97.14;-14834.03;4982219;27;46196;-81
2022/10/18 07:13:07;;;;;;;;;11.67;11.67;;;;;20.17;96.26;-14622.72;4989259;27;45507;-81
2022/10/18 07:15:33;;;;;;;;;10.33;9.33;;;;;20.26;96.56;-14639.97;4987542;27;45871;-82
2022/10/18 07:17:59;;;;;;;;;12.00;12.00;;;;;20.29;97.08;-14532.75;4985553;27;45418;-83
2022/10/18 07:20:24;;;;;;;;;13.33;13.33;;;;;20.33;97.20;-14289.06;4981811;28;45507;-83
2022/10/18 07:22:49;;;;;;;;;11.00;11.00;;;;;20.20;96.74;-14310.50;4955045;28;45360;-83
2022/10/18 07:25:15;;;;;;;;;12.33;11.00;;;;;20.31;97.08;-14178.28;4989225;27;45417;-83
2022/10/18 07:27:41;;;;;;;;;13.00;12.67;;;;;20.13;97.22;-14238.19;4979531;28;45545;-83
2022/10/18 07:30:08;;;;;;;;;14.50;13.50;;;;;20.49;96.58;-13934.06;4992466;27;45369;-83
2022/10/18 07:32:34;;;;;;;;;9.67;8.00;;;;;20.46;96.92;-13946.78;4976537;28;45442;-84
2022/10/18 07:35:00;;;;;;;;;10.67;8.67;;;;;20.44;97.20;-13651.91;4979921;28;45367;-83
2022/10/18 07:37:25;;;;;;;;;11.67;11.00;;;;;20.63;96.80;-13741.81;5004023;27;45530;-83
2022/10/18 07:39:50;;;;;;;;;11.33;11.33;;;;;20.70;97.18;-13314.13;4987751;27;45526;-82
2022/10/18 07:42:16;;;;;;;;;8.00;7.33;;;;;20.71;96.47;-13548.38;4989824;28;45885;-82
2022/10/18 07:44:41;;;;;;;;;11.67;10.33;;;;;20.75;96.74;-13441.16;4985489;28;45450;-83
2022/10/18 07:47:06;;;;;;;;;8.00;7.00;;;;;20.76;95.68;-12949.19;5001575;27;45478;-84
2022/10/18 07:49:32;;;;;;;;;9.33;9.33;;;;;20.78;95.93;-12825.81;4984237;28;46140;-83
2022/10/18 07:51:57;;;;;;;;;14.00;10.67;;;;;20.80;95.53;-12760.31;4992472;27;45433;-84
2022/10/18 07:54:22;;;;;;;;;11.67;11.67;;;;;20.80;96.03;-12789.34;4992212;27;45723;-83
2022/10/18 07:56:48;;;;;;;;;10.00;10.00;;;;;20.56;95.42;-12388.44;5002553;27;45396;-84
2022/10/18 07:59:13;;;;;;;;;9.00;7.33;;;;;20.84;95.36;-12160.78;4990774;27;45400;-82
2022/10/18 08:01:38;;;;;;;;;12.33;11.33;;;;;20.86;95.75;-12063.59;4986459;28;45688;-76
2022/10/18 08:04:04;;;;;;;;;11.33;8.33;;;;;20.69;95.55;-11890.09;4974270;27;45432;-79
2022/10/18 08:06:29;;;;;;;;;9.67;9.67;;;;;20.83;95.30;-11873.59;4984203;28;45495;-76
2022/10/18 08:08:55;;;;;;;;;11.33;11.00;;;;;20.93;94.51;-11893.44;4984068;28;46226;-76
2022/10/18 08:11:23;;;;;;;;;10.67;10.67;;;;;20.93;93.31;-11948.66;4973177;28;45445;-76
2022/10/18 08:13:49;;;;;;;;;9.00;9.00;;;;;20.84;93.68;-11297.16;4978271;28;46306;-76
2022/10/18 08:16:21;;;;;;;;;10.00;8.00;;;;;20.96;92.95;-11380.28;4996023;27;45445;-75
2022/10/18 08:18:47;;;;;;;;;7.00;5.67;;;;;20.78;92.92;-11191.06;4983005;28;47099;-75
2022/10/18 08:21:14;;;;;;;;;11.00;7.00;;;;;20.99;92.84;-10932.84;4995195;27;45552;-75
2022/10/18 08:23:40;;;;;;;;;8.00;8.00;;;;;20.74;92.81;-10903.50;4984289;27;45518;-75
2022/10/18 08:26:07;;;;;;;;;7.33;5.00;;;;;20.96;92.96;-10737.56;4989444;28;45545;-75
2022/10/18 08:28:35;;;;;;;;;6.33;6.33;;;;;21.07;91.97;-10844.31;4996325;27;45573;-75
2022/10/18 08:31:04;;;;;;;;;7.00;6.00;;;;;20.95;92.04;-10842.78;4997313;27;45572;-75
2022/10/18 08:33:31;;;;;;;;;7.00;6.00;;;;;21.13;92.79;-10273.19;4982126;27;45901;-75
2022/10/18 08:35:59;;;;;;;;;6.33;6.33;;;;;21.19;92.29;-10495.16;4970647;28;45440;-75
2022/10/18 08:38:24;;;;;;;;;7.67;7.00;;;;;21.04;91.65;-10430.25;4985719;27;46381;-75
2022/10/18 08:40:50;;;;;;;;;8.00;8.00;;;;;21.23;90.97;-10896.25;4991940;27;45493;-76
2022/10/18 08:43:39;;;;;;;;;6.00;6.00;;;;;21.22;91.01;-10635.19;4985788;28;46554;-74
2022/10/18 08:46:10;;;;;;;;;8.33;7.00;;;;;21.17;90.85;-10444.88;4958926;28;45674;-75
2022/10/18 08:48:46;;;;;;;;;8.33;7.00;;;;;21.23;90.24;-10609.00;4977145;28;45896;-75
2022/10/18 08:51:26;;;;;;;;;7.67;7.00;;;;;21.26;90.50;-10498.63;4974621;28;45560;-76
2022/10/18 08:54:12;;;;;;;;;7.67;6.33;;;;;21.29;90.18;-9924.38;4970270;27;45506;-75
2022/10/18 08:56:40;;;;;;;;;6.00;5.67;;;;;21.34;90.19;-9866.88;4973855;28;45389;-75
2022/10/18 08:59:10;;;;;;;;;8.00;7.33;;;;;21.32;90.86;-9792.84;4976534;27;45406;-75
2022/10/18 09:01:49;;;;;;;;;9.67;8.00;;;;;21.14;91.59;-9751.47;4991113;27;45722;-74
2022/10/18 09:04:17;;;;;;;;;7.67;7.67;;;;;21.20;91.71;-9570.16;4980208;27;45606;-74
2022/10/18 09:07:04;;;;;;;;;6.00;6.00;;;;;21.23;90.61;-10891.00;4987043;27;45390;-75
2022/10/18 09:09:50;;;;;;;;;11.33;7.00;;;;;21.29;90.72;-10132.59;4985974;27;45661;-75
2022/10/18 09:12:46;;;;;;;;;9.00;9.00;;;;;21.30;90.18;-10391.00;4991666;28;45645;-75
2022/10/18 09:15:14;;;;;;;;;9.67;8.67;;;;;21.36;90.30;-10568.25;4987787;27;45296;-75
2022/10/18 09:17:55;;;;;;;;;9.00;9.00;;;;;21.36;90.05;-10120.16;4965745;28;45325;-75
2022/10/18 09:20:25;;;;;;;;;8.67;8.67;;;;;21.39;91.27;-9034.09;4975805;27;46315;-75
2022/10/18 09:23:19;;;;;;;;;8.33;7.00;;;;;21.36;90.76;-9305.47;4976193;27;45439;-75
2022/10/18 09:26:00;;;;;;;;;8.33;7.33;;;;;21.46;91.50;-8610.13;4937936;28;45378;-78
2022/10/18 09:28:55;;;;;;;;;6.67;6.67;;;;;21.56;90.53;-8687.41;4938256;28;45603;-74
2022/10/18 09:31:47;;;;;;;;;9.00;7.33;;;;;21.61;89.09;-10465.63;4952554;28;46641;-78
2022/10/18 09:34:30;;;;;;;;;6.33;6.33;;;;;21.53;89.39;-10794.28;4958535;28;45476;-77
2022/10/18 09:36:56;;;;;;;;;8.00;8.00;;;;;21.65;88.98;-10452.97;4957498;28;45728;-77
2022/10/18 09:39:29;;;;;;;;;12.33;9.00;;;;;21.66;89.27;-9917.63;5006199;28;45711;-75
2022/10/18 09:42:02;;;;;;;;;6.67;6.00;;;;;21.69;89.26;-10432.31;4957816;28;46040;-77
2022/10/18 09:44:41;;;;;;;;;9.00;7.33;;;;;21.79;88.84;-10222.38;4954490;28;45457;-82
2022/10/18 09:47:15;;;;;;;;;7.00;6.00;;;;;21.93;88.32;-10970.59;4976611;28;45385;-86
2022/10/18 09:49:53;;;;;;;;;14.00;13.33;;;;;21.78;87.47;-12861.97;4955003;28;45978;-80
2022/10/18 09:52:26;;;;;;;;;19.00;18.00;;;;;22.20;86.99;-12915.69;4949514;28;47873;-83
2022/10/18 09:55:00;;;;;;;;;13.00;12.67;;;;;22.20;86.21;-12978.97;4954288;28;45411;-85
2022/10/18 09:57:34;;;;;;;;;13.00;10.00;;;;;22.48;84.65;-15616.16;4954897;28;45436;-79
2022/10/18 10:00:03;;;;;;;;;10.00;10.00;;;;;22.26;85.35;-14491.22;4963266;28;45796;-75
2022/10/18 10:02:28;;;;;;;;;41.33;33.33;;;;;22.43;84.91;-16018.59;4972258;27;45481;-74
2022/10/18 10:04:54;;;;;;;;;30.33;27.00;;;;;22.28;84.58;-15844.28;4995644;27;45314;-75
2022/10/18 10:07:32;;;;;;;;;7.00;7.00;;;;;22.47;84.30;-16016.69;5003713;27;45479;-75
2022/10/18 10:10:22;;;;;;;;;6.67;6.67;;;;;22.50;84.33;-15901.28;4996331;27;45466;-74
2022/10/18 10:13:00;;;;;;;;;10.00;10.00;;;;;22.65;84.31;-16054.56;4985157;27;46428;-75
2022/10/18 10:15:26;;;;;;;;;12.67;10.67;;;;;22.57;83.25;-17497.97;4995780;27;45441;-74
2022/10/18 10:18:04;;;;;;;;;10.33;8.33;;;;;22.42;82.41;-19570.84;4987772;27;45517;-74
2022/10/18 10:20:35;;;;;;;;;11.00;9.33;;;;;22.64;82.48;-19178.69;4981957;27;45358;-73
2022/10/18 10:23:17;;;;;;;;;8.33;8.00;;;;;22.29;82.65;-18719.56;4995079;27;45381;-74
2022/10/18 10:25:43;;;;;;;;;9.67;7.00;;;;;22.63;82.39;-19054.44;4995715;27;45286;-75
2022/10/18 10:28:19;;;;;;;;;6.67;6.67;;;;;22.93;82.34;-17830.50;4992535;27;45369;-75
2022/10/18 10:30:45;;;;;;;;;6.67;5.33;;;;;22.92;81.46;-19441.44;4982254;27;45571;-75
2022/10/18 10:33:34;;;;;;;;;5.00;5.00;;;;;22.76;82.87;-17515.38;4987799;27;46275;-74
2022/10/18 10:36:03;;;;;;;;;5.00;5.00;;;;;22.88;82.26;-18607.25;4995346;27;45417;-74
2022/10/18 10:38:30;;;;;;;;;7.33;5.67;;;;;22.89;81.83;-19076.72;4994910;27;45440;-72
2022/10/18 10:40:56;;;;;;;;;9.00;7.67;;;;;22.77;81.65;-19184.50;5002574;27;45400;-72
2022/10/18 10:43:26;;;;;;;;;6.67;6.00;;;;;23.20;81.29;-19738.44;4993524;27;47141;-73
2022/10/18 10:46:05;;;;;;;;;5.33;5.33;;;;;22.92;80.96;-19817.75;5006581;27;45353;-73
2022/10/18 10:48:38;;;;;;;;;7.67;7.67;;;;;22.82;81.01;-19814.97;5072775;27;45715;-73
2022/10/18 10:51:07;;;;;;;;;4.67;4.67;;;;;22.70;80.87;-19630.88;4996334;27;45607;-72
2022/10/18 10:53:50;;;;;;;;;7.00;7.00;;;;;22.74;81.02;-19812.97;4994616;27;45385;-72
2022/10/18 10:56:31;;;;;;;;;9.00;7.00;;;;;22.71;80.82;-19812.31;5023734;27;45429;-72
2022/10/18 10:59:14;;;;;;;;;7.33;7.33;;;;;22.71;80.53;-19812.19;5001593;27;45475;-72
2022/10/18 11:01:40;;;;;;;;;6.00;6.00;;;;;22.80;80.91;-19814.44;5007958;27;45365;-81
2022/10/18 11:04:23;;;;;;;;;5.67;5.33;;;;;22.53;80.58;-19807.66;5055049;27;45500;-81
2022/10/18 11:07:07;;;;;;;;;5.00;4.33;;;;;22.89;80.43;-19816.97;4975488;28;45433;-82
2022/10/18 11:09:40;;;;;;;;;4.67;4.67;;;;;22.95;80.35;-19818.44;4996119;27;45499;-81
2022/10/18 11:12:15;;;;;;;;;5.00;5.00;;;;;23.06;79.86;-19821.34;4996801;27;45464;-82
2022/10/18 11:14:45;;;;;;;;;5.00;5.00;;;;;23.17;79.75;-19824.28;4970704;28;48316;-82
2022/10/18 11:17:22;;;;;;;;;5.67;4.00;;;;;23.12;78.56;-19822.81;5013397;27;45713;-82
2022/10/18 11:20:05;;;;;;;;;5.00;4.00;;;;;23.02;79.14;-19820.16;4993128;27;45351;-82
2022/10/18 11:22:39;;;;;;;;;3.00;3.00;;;;;22.91;79.12;-19817.50;4972759;28;45423;-81
2022/10/18 11:25:05;;;;;;;;;5.00;4.00;;;;;22.81;78.95;-19814.72;4995919;27;45445;-82